createdAt,value
2017-08-03T00:00:52.406Z,91.50
2017-08-03T00:03:20.618Z,91.50
2017-08-03T00:05:48.040Z,91.40
2017-08-03T00:08:16.235Z,91.30
2017-08-03T00:10:43.661Z,91.30
2017-08-03T00:13:11.861Z,91.50
2017-08-03T00:15:39.283Z,91.20
2017-08-03T00:18:07.473Z,91.40
2017-08-03T00:20:35.668Z,91.30
2017-08-03T00:23:03.095Z,91.30
2017-08-03T00:25:31.276Z,91.70
2017-08-03T00:27:58.700Z,91.70
2017-08-03T00:30:26.120Z,91.70
2017-08-03T00:32:53.538Z,91.60
2017-08-03T00:35:21.734Z,91.50
2017-08-03T00:37:49.160Z,91.50
2017-08-03T00:40:17.386Z,92.80
2017-08-03T00:42:44.808Z,92.80
2017-08-03T00:45:12.243Z,93.20
2017-08-03T00:47:39.653Z,93.30
2017-08-03T00:50:07.080Z,93.60
2017-08-03T00:52:34.549Z,93.20
2017-08-03T00:55:02.009Z,94.00
2017-08-03T00:57:29.434Z,93.70
2017-08-03T00:59:57.657Z,92.80
2017-08-03T01:02:25.081Z,92.80
2017-08-03T01:05:01.905Z,93.10
2017-08-03T01:07:29.943Z,93.70
2017-08-03T01:09:57.365Z,93.60
2017-08-03T01:12:25.559Z,94.30
2017-08-03T01:14:52.969Z,94.30
2017-08-03T01:17:20.393Z,94.50
2017-08-03T01:19:47.818Z,94.20
2017-08-03T01:22:15.248Z,94.60
2017-08-03T01:24:43.445Z,94.50
2017-08-03T01:27:10.860Z,94.40
2017-08-03T01:29:38.279Z,94.40
2017-08-03T01:32:05.708Z,94.60
2017-08-03T01:34:33.136Z,94.50
2017-08-03T01:37:01.341Z,94.70
2017-08-03T01:39:28.756Z,94.80
2017-08-03T01:41:56.247Z,95.00
2017-08-03T01:44:24.417Z,94.90
2017-08-03T01:46:51.835Z,94.70
2017-08-03T01:49:19.256Z,94.80
2017-08-03T01:51:46.720Z,95.10
2017-08-03T01:54:14.143Z,95.10
2017-08-03T01:56:41.560Z,95.20
2017-08-03T01:59:08.985Z,94.90
2017-08-03T02:01:36.412Z,94.50
2017-08-03T02:04:03.832Z,94.70
2017-08-03T02:06:31.252Z,94.50
2017-08-03T02:08:58.686Z,94.20
2017-08-03T02:11:26.120Z,94.30
2017-08-03T02:13:54.317Z,94.70
2017-08-03T02:16:21.757Z,94.70
2017-08-03T02:18:49.961Z,95.80
2017-08-03T02:21:17.389Z,95.70
2017-08-03T02:23:44.816Z,95.80
2017-08-03T02:26:12.240Z,95.80
2017-08-03T02:28:39.686Z,96.30
2017-08-03T02:31:07.130Z,96.80
2017-08-03T02:33:34.552Z,96.30
2017-08-03T02:36:02.731Z,96.40
2017-08-03T02:38:30.924Z,96.50
2017-08-03T02:40:58.350Z,96.50
2017-08-03T02:43:25.780Z,96.50
2017-08-03T02:45:53.232Z,96.30
2017-08-03T02:48:20.667Z,96.00
2017-08-03T02:50:48.093Z,95.80
2017-08-03T02:53:16.273Z,96.40
2017-08-03T02:55:43.695Z,96.40
2017-08-03T02:58:11.120Z,96.40
2017-08-03T03:00:38.568Z,96.30
2017-08-03T03:03:06.010Z,96.30
2017-08-03T03:05:33.450Z,95.80
2017-08-03T03:08:00.877Z,96.40
2017-08-03T03:10:28.292Z,96.70
2017-08-03T03:12:55.717Z,96.40
2017-08-03T03:15:23.155Z,96.90
2017-08-03T03:17:50.595Z,96.50
2017-08-03T03:20:18.021Z,96.10
2017-08-03T03:22:45.453Z,95.80
2017-08-03T03:25:12.879Z,96.40
2017-08-03T03:27:41.064Z,97.00
2017-08-03T03:30:08.494Z,96.90
2017-08-03T03:32:35.921Z,97.30
2017-08-03T03:35:03.344Z,97.10
2017-08-03T03:37:30.774Z,97.20
2017-08-03T03:39:58.956Z,96.80
2017-08-03T03:42:26.384Z,96.70
2017-08-03T03:44:53.824Z,96.80
2017-08-03T03:47:21.254Z,96.60
2017-08-03T03:49:48.672Z,96.70
2017-08-03T03:52:16.895Z,97.30
2017-08-03T03:54:44.329Z,97.30
2017-08-03T03:57:11.748Z,98.00
2017-08-03T03:59:39.936Z,97.70
2017-08-03T04:02:07.362Z,97.70
2017-08-03T04:04:34.812Z,98.10
2017-08-03T04:07:03.008Z,98.40
2017-08-03T04:09:30.427Z,98.40
2017-08-03T04:11:57.899Z,98.30
2017-08-03T04:14:26.091Z,98.20
2017-08-03T04:16:53.523Z,98.20
2017-08-03T04:19:21.721Z,97.90
2017-08-03T04:21:49.159Z,97.80
2017-08-03T04:24:17.350Z,98.10
2017-08-03T04:26:44.778Z,98.10
2017-08-03T04:29:12.969Z,97.90
2017-08-03T04:31:40.400Z,97.90
2017-08-03T04:34:07.836Z,98.10
2017-08-03T04:36:35.263Z,98.40
2017-08-03T04:39:02.687Z,98.20
2017-08-03T04:41:30.113Z,98.00
2017-08-03T04:43:57.558Z,98.00
2017-08-03T04:46:24.968Z,98.00
2017-08-03T04:51:26.354Z,99.00
2017-08-03T04:53:53.769Z,98.70
2017-08-03T04:56:21.964Z,98.90
2017-08-03T04:58:49.388Z,98.90
2017-08-03T05:01:17.585Z,99.40
2017-08-03T05:03:45.004Z,99.10
2017-08-03T05:06:12.453Z,98.70
2017-08-03T05:08:39.880Z,98.60
2017-08-03T05:11:07.308Z,98.80
2017-08-03T05:13:35.167Z,98.80
2017-08-03T05:16:02.593Z,98.80
2017-08-03T05:18:30.134Z,99.20
2017-08-03T05:20:57.565Z,99.00
2017-08-03T05:23:24.977Z,99.20
2017-08-03T05:25:53.169Z,99.40
2017-08-03T05:28:20.592Z,99.70
2017-08-03T05:30:48.011Z,99.20
2017-08-03T05:33:15.462Z,98.90
2017-08-03T05:35:42.876Z,98.70
2017-08-03T05:38:11.090Z,99.20
2017-08-03T05:40:38.511Z,99.20
2017-08-03T05:43:06.696Z,99.40
2017-08-03T05:45:35.683Z,99.60
2017-08-03T05:48:03.110Z,99.30
2017-08-03T05:50:30.549Z,99.20
2017-08-03T05:52:58.017Z,99.40
2017-08-03T05:55:25.442Z,99.20
2017-08-03T05:57:52.892Z,99.30
2017-08-03T06:00:20.317Z,99.40
2017-08-03T06:02:47.741Z,99.40
2017-08-03T06:05:15.184Z,99.50
2017-08-03T06:07:42.606Z,99.50
2017-08-03T06:10:10.036Z,99.50
2017-08-03T06:12:38.236Z,99.60
2017-08-03T06:15:05.664Z,99.20
2017-08-03T06:17:33.849Z,98.70
2017-08-03T06:20:01.313Z,98.70
2017-08-03T06:22:29.497Z,99.30
2017-08-03T06:24:56.913Z,99.20
2017-08-03T06:27:25.110Z,99.30
2017-08-03T06:29:52.532Z,99.20
2017-08-03T06:32:19.957Z,99.30
2017-08-03T06:34:47.384Z,98.80
2017-08-03T06:37:14.836Z,97.80
2017-08-03T06:39:43.035Z,97.60
2017-08-03T06:42:10.484Z,97.50
2017-08-03T06:44:37.896Z,97.80
2017-08-03T06:47:05.333Z,97.50
2017-08-03T06:49:32.769Z,97.10
2017-08-03T06:52:00.225Z,96.90
2017-08-03T06:54:27.657Z,97.40
2017-08-03T06:56:55.097Z,97.60
2017-08-03T06:59:22.534Z,97.70
2017-08-03T07:01:50.801Z,97.70
2017-08-03T07:04:18.217Z,97.60
2017-08-03T07:06:45.654Z,97.80
2017-08-03T07:09:13.097Z,97.80
2017-08-03T07:11:40.637Z,98.40
2017-08-03T07:14:08.107Z,98.10
2017-08-03T07:16:35.533Z,98.00
2017-08-03T07:19:03.149Z,98.20
2017-08-03T07:21:30.638Z,98.30
2017-08-03T07:23:58.149Z,98.30
2017-08-03T07:26:25.633Z,98.40
2017-08-03T07:28:53.074Z,98.10
2017-08-03T07:31:20.563Z,97.80
2017-08-03T07:33:47.989Z,97.60
2017-08-03T07:36:15.756Z,97.30
2017-08-03T07:38:43.177Z,97.00
2017-08-03T07:41:10.599Z,97.10
2017-08-03T07:43:38.041Z,96.90
2017-08-03T07:46:05.481Z,96.80
2017-08-03T07:48:32.988Z,96.20
2017-08-03T07:51:00.889Z,96.10
2017-08-03T07:53:29.080Z,95.70
2017-08-03T07:55:56.662Z,95.70
2017-08-03T07:58:24.113Z,95.80
2017-08-03T08:00:51.537Z,95.80
2017-08-03T08:03:19.063Z,95.60
2017-08-03T08:05:46.506Z,95.30
2017-08-03T08:08:14.443Z,95.10
2017-08-03T08:10:44.640Z,95.00
2017-08-03T08:13:12.289Z,94.90
2017-08-03T08:15:40.049Z,94.50
2017-08-03T08:18:07.585Z,94.60
2017-08-03T08:20:35.259Z,94.60
2017-08-03T08:23:02.693Z,94.60
2017-08-03T08:25:30.122Z,94.50
2017-08-03T08:27:57.552Z,94.60
2017-08-03T08:30:24.981Z,94.30
2017-08-03T08:32:52.408Z,94.40
2017-08-03T08:35:19.844Z,94.20
2017-08-03T08:37:47.268Z,93.90
2017-08-03T08:40:14.696Z,93.90
2017-08-03T08:42:42.117Z,93.60
2017-08-03T08:45:09.558Z,93.50
2017-08-03T08:47:36.978Z,93.20
2017-08-03T08:50:05.180Z,93.00
2017-08-03T08:52:32.597Z,92.80
2017-08-03T08:55:00.809Z,93.30
2017-08-03T08:57:28.242Z,93.20
2017-08-03T08:59:56.462Z,93.50
2017-08-03T09:02:23.889Z,93.50
2017-08-03T09:04:51.305Z,93.30
2017-08-03T09:07:18.724Z,93.20
2017-08-03T09:09:46.191Z,93.20
2017-08-03T09:12:13.600Z,92.70
2017-08-03T09:14:41.034Z,92.00
2017-08-03T09:17:09.266Z,92.00
2017-08-03T09:19:36.700Z,92.00
2017-08-03T09:22:04.136Z,91.40
2017-08-03T09:24:32.318Z,90.70
2017-08-03T09:26:59.765Z,90.60
2017-08-03T09:29:27.963Z,90.70
2017-08-03T09:31:55.387Z,90.60
2017-08-03T09:34:23.592Z,90.20
2017-08-03T09:36:51.004Z,90.20
2017-08-03T09:39:18.430Z,87.50
2017-08-03T09:41:45.848Z,87.70
2017-08-03T09:44:13.276Z,86.20
2017-08-03T09:46:41.481Z,86.40
2017-08-03T09:49:08.900Z,86.30
2017-08-03T09:51:36.328Z,85.10
2017-08-03T09:54:03.764Z,85.90
2017-08-03T09:56:31.201Z,86.20
2017-08-03T09:58:58.641Z,86.10
2017-08-03T10:01:26.850Z,86.90
2017-08-03T10:03:54.266Z,86.90
2017-08-03T10:06:22.485Z,86.60
2017-08-03T10:08:49.906Z,86.50
2017-08-03T10:11:18.240Z,85.00
2017-08-03T10:13:45.648Z,85.00
2017-08-03T10:16:13.104Z,85.00
2017-08-03T10:18:41.294Z,84.40
2017-08-03T10:21:08.723Z,84.40
2017-08-03T10:23:36.907Z,84.90
2017-08-03T10:26:04.343Z,84.90
2017-08-03T10:28:32.534Z,85.10
2017-08-03T10:30:59.959Z,85.10
2017-08-03T10:33:27.385Z,85.70
2017-08-03T10:35:54.813Z,85.50
2017-08-03T10:38:22.249Z,84.80
2017-08-03T10:40:49.673Z,84.80
2017-08-03T10:43:17.113Z,84.90
2017-08-03T10:45:44.544Z,84.60
2017-08-03T10:48:11.997Z,84.70
2017-08-03T10:50:39.407Z,84.80
2017-08-03T10:53:06.845Z,84.70
2017-08-03T10:55:34.271Z,85.30
2017-08-03T10:58:01.777Z,84.20
2017-08-03T11:00:29.210Z,82.60
2017-08-03T11:02:56.645Z,83.30
2017-08-03T11:05:27.370Z,84.10
2017-08-03T11:07:55.835Z,82.90
2017-08-03T11:10:23.269Z,82.80
2017-08-03T11:12:51.469Z,83.30
2017-08-03T11:15:18.914Z,83.30
2017-08-03T11:17:47.145Z,81.10
2017-08-03T11:20:14.577Z,80.20
2017-08-03T11:22:42.029Z,79.50
2017-08-03T11:25:09.528Z,77.90
2017-08-03T11:27:37.741Z,75.50
2017-08-03T11:30:05.201Z,75.50
2017-08-03T11:32:33.205Z,75.20
2017-08-03T11:35:00.633Z,76.40
2017-08-03T11:37:28.086Z,75.80
2017-08-03T11:39:55.516Z,75.20
2017-08-03T11:42:23.333Z,73.20
2017-08-03T11:44:50.762Z,72.20
2017-08-03T11:47:18.424Z,71.70
2017-08-03T11:49:45.849Z,72.00
2017-08-03T11:52:14.049Z,72.50
2017-08-03T11:54:41.491Z,72.40
2017-08-03T11:57:08.971Z,68.50
2017-08-03T11:59:36.414Z,66.70
2017-08-03T12:02:03.860Z,66.10
2017-08-03T12:04:31.360Z,65.10
2017-08-03T12:06:58.802Z,65.70
2017-08-03T12:09:26.277Z,63.90
2017-08-03T12:11:53.692Z,64.20
2017-08-03T12:14:21.122Z,63.60
2017-08-03T12:16:49.379Z,63.10
2017-08-03T12:19:17.048Z,63.00
2017-08-03T12:21:44.550Z,63.80
2017-08-03T12:24:12.154Z,63.20
2017-08-03T12:26:39.559Z,63.00
2017-08-03T12:29:07.130Z,62.30
2017-08-03T12:31:34.567Z,61.80
2017-08-03T12:34:01.993Z,61.70
2017-08-03T12:36:30.277Z,64.20
2017-08-03T12:38:58.627Z,63.70
2017-08-03T12:41:26.069Z,63.60
2017-08-03T12:43:53.568Z,63.60
2017-08-03T12:46:21.800Z,64.70
2017-08-03T12:48:50.031Z,64.60
2017-08-03T12:51:17.473Z,64.60
2017-08-03T12:53:45.654Z,64.90
2017-08-03T12:56:13.185Z,64.50
2017-08-03T12:58:40.630Z,63.80
2017-08-03T13:01:08.046Z,64.20
2017-08-03T13:03:36.169Z,63.90
2017-08-03T13:06:03.600Z,63.50
2017-08-03T13:08:31.086Z,62.60
2017-08-03T13:10:58.576Z,62.50
2017-08-03T13:13:25.997Z,63.10
2017-08-03T13:15:53.444Z,62.80
2017-08-03T13:18:22.883Z,57.70
2017-08-03T13:20:52.160Z,56.40
2017-08-03T13:23:20.358Z,53.60
2017-08-03T13:25:49.862Z,53.60
2017-08-03T13:28:17.787Z,52.00
2017-08-03T13:30:45.469Z,50.50
2017-08-03T13:33:12.934Z,50.00
2017-08-03T13:35:41.189Z,46.50
2017-08-03T13:38:08.628Z,46.50
2017-08-03T13:40:36.102Z,44.80
2017-08-03T13:43:03.543Z,44.10
2017-08-03T13:45:30.958Z,43.60
2017-08-03T13:47:58.415Z,42.80
2017-08-03T13:50:25.840Z,43.40
2017-08-03T13:52:54.026Z,42.40
2017-08-03T13:55:21.470Z,42.40
2017-08-03T13:57:49.652Z,43.20
2017-08-03T14:00:17.111Z,43.20
2017-08-03T14:02:45.298Z,45.20
2017-08-03T14:05:12.720Z,45.10
2017-08-03T14:07:40.140Z,46.20
2017-08-03T14:10:07.565Z,47.60
2017-08-03T14:12:35.009Z,50.00
2017-08-03T14:15:02.429Z,52.80
2017-08-03T14:17:29.841Z,55.30
2017-08-03T14:19:57.297Z,55.60
2017-08-03T14:22:24.709Z,54.70
2017-08-03T14:24:52.897Z,51.20
2017-08-03T14:27:21.086Z,49.40
2017-08-03T14:29:48.507Z,49.30
2017-08-03T14:32:15.917Z,47.80
2017-08-03T14:34:43.340Z,46.00
2017-08-03T14:37:11.542Z,49.30
2017-08-03T14:39:38.957Z,49.20
2017-08-03T14:42:07.132Z,49.60
2017-08-03T14:44:35.326Z,50.50
2017-08-03T14:47:02.735Z,50.50
2017-08-03T14:49:30.157Z,49.00
2017-08-03T14:51:57.620Z,47.10
2017-08-03T14:54:25.084Z,46.30
2017-08-03T14:56:52.493Z,47.20
2017-08-03T14:59:20.664Z,47.70
2017-08-03T15:01:48.918Z,47.00
2017-08-03T15:04:16.437Z,47.00
2017-08-03T15:06:43.852Z,45.60
2017-08-03T15:09:11.353Z,44.80
2017-08-03T15:11:38.764Z,43.60
2017-08-03T15:14:06.186Z,42.40
2017-08-03T15:16:33.623Z,42.10
2017-08-03T15:19:01.056Z,41.90
2017-08-03T15:21:28.470Z,40.90
2017-08-03T15:23:56.654Z,40.60
2017-08-03T15:26:24.855Z,40.90
2017-08-03T15:28:52.278Z,41.40
2017-08-03T15:31:20.645Z,40.40
2017-08-03T15:33:48.059Z,40.30
2017-08-03T15:36:15.521Z,40.40
2017-08-03T15:38:42.964Z,40.10
2017-08-03T15:41:10.383Z,40.10
2017-08-03T15:43:38.573Z,40.30
2017-08-03T15:46:06.023Z,40.30
2017-08-03T15:48:34.222Z,40.20
2017-08-03T15:51:01.627Z,40.10
2017-08-03T15:53:29.049Z,41.40
2017-08-03T15:55:56.473Z,43.60
2017-08-03T15:58:23.909Z,44.70
2017-08-03T16:00:52.088Z,47.30
2017-08-03T16:03:19.513Z,47.20
2017-08-03T16:05:48.484Z,47.90
2017-08-03T16:08:15.917Z,47.90
2017-08-03T16:10:43.412Z,48.10
2017-08-03T16:13:10.813Z,48.60
2017-08-03T16:15:38.245Z,49.10
2017-08-03T16:18:06.427Z,50.00
2017-08-03T16:20:34.652Z,50.50
2017-08-03T16:23:02.120Z,50.40
2017-08-03T16:25:29.572Z,50.60
2017-08-03T16:27:57.006Z,50.80
2017-08-03T16:30:24.410Z,50.60
2017-08-03T16:32:52.609Z,51.50
2017-08-03T16:35:20.124Z,50.80
2017-08-03T16:37:47.555Z,50.20
2017-08-03T16:40:15.189Z,49.10
2017-08-03T16:42:42.606Z,49.80
2017-08-03T16:45:10.020Z,50.80
2017-08-03T16:47:37.447Z,51.60
2017-08-03T16:50:04.906Z,52.20
2017-08-03T16:52:33.077Z,52.50
2017-08-03T16:55:02.734Z,52.50
2017-08-03T16:57:30.164Z,52.80
2017-08-03T16:59:57.595Z,52.80
2017-08-03T17:02:25.024Z,52.90
2017-08-03T17:04:52.440Z,53.20
2017-08-03T17:07:19.861Z,53.50
2017-08-03T17:09:47.281Z,53.90
2017-08-03T17:12:14.713Z,54.20
2017-08-03T17:14:42.137Z,54.80
2017-08-03T17:17:09.563Z,55.00
2017-08-03T17:19:36.984Z,55.10
2017-08-03T17:22:04.410Z,55.50
2017-08-03T17:24:31.835Z,55.70
2017-08-03T17:26:59.263Z,55.90
2017-08-03T17:29:26.688Z,56.20
2017-08-03T17:31:54.104Z,56.50
2017-08-03T17:34:22.304Z,57.00
2017-08-03T17:36:49.725Z,57.00
2017-08-03T17:39:17.153Z,57.20
2017-08-03T17:41:44.576Z,57.20
2017-08-03T17:44:11.993Z,57.40
2017-08-03T17:46:39.423Z,57.60
2017-08-03T17:49:06.833Z,58.00
2017-08-03T17:51:34.263Z,58.20
2017-08-03T17:54:02.452Z,58.70
2017-08-03T17:56:30.640Z,58.50
2017-08-03T17:58:58.057Z,58.50
2017-08-03T18:01:25.476Z,58.40
2017-08-03T18:03:52.934Z,58.70
2017-08-03T18:06:20.377Z,58.60
2017-08-03T18:08:47.804Z,58.90
2017-08-03T18:11:15.980Z,59.20
2017-08-03T18:13:43.393Z,59.10
2017-08-03T18:16:10.816Z,59.20
2017-08-03T18:18:38.241Z,59.60
2017-08-03T18:21:06.434Z,59.70
2017-08-03T18:23:33.849Z,59.60
2017-08-03T18:26:01.377Z,59.90
2017-08-03T18:28:28.784Z,60.00
2017-08-03T18:30:56.199Z,60.30
2017-08-03T18:33:23.630Z,60.20
2017-08-03T18:35:51.068Z,60.10
2017-08-03T18:38:18.483Z,60.40
2017-08-03T18:40:46.669Z,60.90
2017-08-03T18:43:14.878Z,61.00
2017-08-03T18:45:42.303Z,60.90
2017-08-03T18:48:10.505Z,61.60
2017-08-03T18:50:37.952Z,61.50
2017-08-03T18:53:05.377Z,61.90
2017-08-03T18:55:33.564Z,63.10
2017-08-03T18:58:01.760Z,62.50
2017-08-03T19:00:29.216Z,62.50
2017-08-03T19:02:56.636Z,62.80
2017-08-03T19:05:24.865Z,64.10
2017-08-03T19:07:52.291Z,63.20
2017-08-03T19:10:19.722Z,63.30
2017-08-03T19:12:47.156Z,63.20
2017-08-03T19:15:14.580Z,63.40
2017-08-03T19:17:42.005Z,63.40
2017-08-03T19:20:09.420Z,63.40
2017-08-03T19:22:36.845Z,63.30
2017-08-03T19:25:04.259Z,63.00
2017-08-03T19:27:32.485Z,62.30
2017-08-03T19:29:59.908Z,62.30
2017-08-03T19:32:27.313Z,61.70
2017-08-03T19:34:54.735Z,61.30
2017-08-03T19:37:22.160Z,60.50
2017-08-03T19:39:50.377Z,59.70
2017-08-03T19:42:17.801Z,59.70
2017-08-03T19:44:45.242Z,59.60
2017-08-03T19:47:12.669Z,59.00
2017-08-03T19:49:40.090Z,59.00
2017-08-03T19:52:07.520Z,58.70
2017-08-03T19:54:34.951Z,58.70
2017-08-03T19:57:03.140Z,58.70
2017-08-03T19:59:31.320Z,58.50
2017-08-03T20:01:58.768Z,58.50
2017-08-03T20:04:26.176Z,58.50
2017-08-03T20:07:05.472Z,58.30
2017-08-03T20:09:36.880Z,58.40
2017-08-03T20:12:04.305Z,58.40
2017-08-03T20:14:31.736Z,58.30
2017-08-03T20:16:59.173Z,58.00
2017-08-03T20:19:26.636Z,57.80
2017-08-03T20:21:54.048Z,57.70
2017-08-03T20:24:21.489Z,58.00
2017-08-03T20:29:29.281Z,57.90
2017-08-03T20:31:56.725Z,57.80
2017-08-03T20:34:24.144Z,57.70
2017-08-03T20:36:52.336Z,57.60
2017-08-03T20:39:20.541Z,57.40
2017-08-03T20:41:48.087Z,57.40
2017-08-03T20:44:15.656Z,57.50
2017-08-03T20:46:43.091Z,58.00
2017-08-03T20:49:10.526Z,57.80
2017-08-03T20:51:38.815Z,57.90
2017-08-03T20:54:06.271Z,57.70
2017-08-03T20:56:34.449Z,58.10
2017-08-03T20:59:01.879Z,58.10
2017-08-03T21:01:29.296Z,58.20
2017-08-03T21:03:56.765Z,58.20
2017-08-03T21:06:24.207Z,58.50
2017-08-03T21:08:51.632Z,58.80
2017-08-03T21:11:19.117Z,58.80
2017-08-03T21:13:46.578Z,58.50
2017-08-03T21:16:14.015Z,58.80
2017-08-03T21:18:41.435Z,58.50
2017-08-03T21:21:09.632Z,58.40
2017-08-03T21:23:37.069Z,58.30
2017-08-03T21:26:05.306Z,58.70
2017-08-03T21:28:32.732Z,58.70
2017-08-03T21:31:00.178Z,58.90
2017-08-03T21:33:27.610Z,59.20
2017-08-03T21:35:55.799Z,59.40
2017-08-03T21:38:23.210Z,59.30
2017-08-03T21:40:50.646Z,59.20
2017-08-03T21:43:18.066Z,59.20
2017-08-03T21:45:45.481Z,59.10
2017-08-03T21:48:12.908Z,59.00
2017-08-03T21:50:40.336Z,58.70
2017-08-03T21:53:07.757Z,58.90
2017-08-03T21:55:35.264Z,58.70
2017-08-03T21:58:02.695Z,58.50
2017-08-03T22:00:42.158Z,58.50
2017-08-03T22:03:09.603Z,58.10
2017-08-03T22:05:37.024Z,58.40
2017-08-03T22:08:05.250Z,58.40
2017-08-03T22:10:32.673Z,58.40
2017-08-03T22:13:00.098Z,58.40
2017-08-03T22:15:27.521Z,58.30
2017-08-03T22:17:54.953Z,58.40
2017-08-03T22:20:22.381Z,58.00
2017-08-03T22:22:50.585Z,58.10
2017-08-03T22:25:18.001Z,58.10
2017-08-03T22:27:46.240Z,58.40
2017-08-03T22:30:13.711Z,58.40
2017-08-03T22:32:41.175Z,58.10
2017-08-03T22:35:08.604Z,57.80
2017-08-03T22:37:36.021Z,57.80
2017-08-03T22:40:03.449Z,57.70
2017-08-03T22:42:30.875Z,58.20
2017-08-03T22:44:58.302Z,58.50
2017-08-03T22:47:25.717Z,57.90
2017-08-03T22:49:53.148Z,58.20
2017-08-03T22:52:20.593Z,58.70
2017-08-03T22:54:48.039Z,58.00
2017-08-03T22:57:15.448Z,58.20
2017-08-03T22:59:43.642Z,59.00
2017-08-03T23:02:11.149Z,58.70
2017-08-03T23:04:38.582Z,58.70
2017-08-03T23:07:06.058Z,58.60
2017-08-03T23:09:33.462Z,58.40
2017-08-03T23:12:00.892Z,58.70
2017-08-03T23:14:28.305Z,58.90
2017-08-03T23:16:55.719Z,58.80
2017-08-03T23:22:29.504Z,59.20
2017-08-03T23:24:56.934Z,59.30
2017-08-03T23:27:24.356Z,59.30
2017-08-03T23:29:51.794Z,59.30
2017-08-03T23:32:19.989Z,59.60
2017-08-03T23:34:47.468Z,59.60
2017-08-03T23:37:14.917Z,59.00
2017-08-03T23:39:46.342Z,58.90
2017-08-03T23:42:14.539Z,59.40
2017-08-03T23:44:41.948Z,59.40
2017-08-03T23:47:09.392Z,59.30
2017-08-03T23:49:36.811Z,59.40
2017-08-03T23:52:04.240Z,58.90
2017-08-03T23:54:31.652Z,59.40
2017-08-03T23:56:59.080Z,59.20
2017-08-03T23:59:26.529Z,59.10
